Time;durP1;ratioP1;P1;durP2;ratioP2;P2;SDS_P1;SDS_P2;PMS_P1;PMS_P2;Temp;Humidity;BMP_temperature;BMP_pressure;BME280_temperature;BME280_humidity;BME280_pressure;Samples;Min_cycle;Max_cycle;Signal;HPM_P1;HPM_P2
2022/09/28 00:04:28;;;;;;;1.40;0.75;;;12.00;99.90;;;;;;10061297;28;20020;-66
2022/09/28 00:09:19;;;;;;;1.90;0.80;;;12.10;99.90;;;;;;10071451;28;20385;-66
2022/09/28 00:14:10;;;;;;;0.60;0.60;;;12.10;99.90;;;;;;10073390;28;20033;-67
2022/09/28 00:19:01;;;;;;;4.72;1.30;;;12.10;99.90;;;;;;10074954;28;20029;-65
2022/09/28 00:24:14;;;;;;;2.10;0.90;;;12.10;99.90;;;;;;10067731;28;20021;-64
2022/09/28 00:29:05;;;;;;;1.25;0.70;;;12.10;99.90;;;;;;10061496;28;20554;-64
2022/09/28 00:33:56;;;;;;;4.25;0.95;;;12.10;99.90;;;;;;10057664;28;20128;-65
2022/09/28 00:38:46;;;;;;;2.00;1.00;;;12.10;99.90;;;;;;10063349;28;20427;-64
2022/09/28 00:43:37;;;;;;;0.80;0.60;;;12.00;99.90;;;;;;10063390;28;20754;-64
2022/09/28 00:48:33;;;;;;;4.20;1.02;;;12.20;99.90;;;;;;10067417;28;20387;-64
2022/09/28 00:53:28;;;;;;;3.75;0.77;;;12.10;99.90;;;;;;10080155;28;20087;-64
2022/09/28 00:58:26;;;;;;;5.93;0.88;;;12.10;99.90;;;;;;10057039;28;20361;-63
2022/09/28 01:03:16;;;;;;;2.63;0.75;;;12.10;99.90;;;;;;10065685;28;20128;-64
2022/09/28 01:08:08;;;;;;;2.10;0.90;;;12.10;99.90;;;;;;10072885;28;20417;-64
2022/09/28 01:12:59;;;;;;;1.75;0.75;;;12.10;99.90;;;;;;10072127;28;20025;-64
2022/09/28 01:18:03;;;;;;;2.13;0.90;;;12.10;99.90;;;;;;10077766;28;20037;-64
2022/09/28 01:23:18;;;;;;;2.47;0.90;;;12.10;99.90;;;;;;10060234;28;20025;-64
2022/09/28 01:28:16;;;;;;;2.65;1.00;;;12.00;99.90;;;;;;10064903;28;20440;-63
2022/09/28 01:33:14;;;;;;;2.10;0.80;;;12.10;99.90;;;;;;10074345;28;20411;-64
2022/09/28 01:38:13;;;;;;;2.38;0.90;;;12.10;99.90;;;;;;10067644;28;20046;-65
2022/09/28 01:43:16;;;;;;;2.63;0.85;;;12.10;99.90;;;;;;10076938;28;20018;-63
2022/09/28 01:48:09;;;;;;;3.33;1.00;;;12.20;99.90;;;;;;10079852;28;20025;-63
2022/09/28 01:53:11;;;;;;;1.75;0.90;;;12.10;99.90;;;;;;10075428;28;20045;-62
2022/09/28 01:58:17;;;;;;;4.47;1.40;;;12.10;99.90;;;;;;10084138;28;20030;-63
2022/09/28 02:03:45;;;;;;;2.08;1.10;;;12.10;99.90;;;;;;10066648;28;20017;-63
2022/09/28 02:08:42;;;;;;;2.08;0.57;;;12.10;99.90;;;;;;10041505;28;20049;-63
2022/09/28 02:13:37;;;;;;;3.05;0.90;;;12.10;99.90;;;;;;10076731;28;20029;-65
2022/09/28 02:18:28;;;;;;;2.42;0.70;;;12.10;99.90;;;;;;10076868;28;20046;-63
2022/09/28 02:23:21;;;;;;;2.58;0.55;;;12.10;99.90;;;;;;10072489;28;20543;-63
2022/09/28 02:28:12;;;;;;;1.50;0.77;;;12.10;99.90;;;;;;10075528;28;20115;-63
2022/09/28 02:33:20;;;;;;;2.67;0.70;;;12.10;99.90;;;;;;10068434;28;20034;-62
2022/09/28 02:38:12;;;;;;;1.45;0.77;;;12.10;99.90;;;;;;10067423;28;20036;-63
2022/09/28 02:43:09;;;;;;;2.80;0.98;;;12.10;99.90;;;;;;10062175;28;20316;-64
2022/09/28 02:48:15;;;;;;;1.10;0.80;;;12.00;99.90;;;;;;10085004;28;20181;-63
2022/09/28 02:53:14;;;;;;;2.00;0.98;;;12.20;99.90;;;;;;10068726;28;20459;-62
2022/09/28 02:58:42;;;;;;;2.88;0.95;;;12.10;99.90;;;;;;10075093;28;20071;-63
2022/09/28 03:03:44;;;;;;;2.72;2.13;;;12.10;99.90;;;;;;10077375;28;20415;-64
2022/09/28 03:08:41;;;;;;;1.50;0.82;;;12.10;99.90;;;;;;10070083;28;20045;-63
2022/09/28 03:13:34;;;;;;;2.38;0.88;;;12.10;99.90;;;;;;10075982;28;20032;-63
2022/09/28 03:18:24;;;;;;;2.13;0.95;;;12.20;99.90;;;;;;10066066;28;20068;-62
2022/09/28 03:23:15;;;;;;;1.63;0.85;;;12.20;99.90;;;;;;10079259;28;20029;-62
2022/09/28 03:28:05;;;;;;;2.22;0.82;;;12.10;99.90;;;;;;10075339;28;20030;-61
2022/09/28 03:32:58;;;;;;;1.48;0.63;;;12.10;99.90;;;;;;10059352;28;20060;-63
2022/09/28 03:37:48;;;;;;;1.55;1.30;;;12.10;99.90;;;;;;10066900;28;20029;-61
2022/09/28 03:42:39;;;;;;;1.60;0.75;;;12.20;99.90;;;;;;10068966;28;20022;-61
2022/09/28 03:47:30;;;;;;;1.88;0.68;;;12.10;99.90;;;;;;10062636;28;20052;-62
2022/09/28 03:52:20;;;;;;;0.80;0.55;;;12.10;99.90;;;;;;10079214;28;20025;-63
2022/09/28 03:57:11;;;;;;;2.35;0.80;;;12.20;99.90;;;;;;10073382;28;20055;-63
2022/09/28 04:02:02;;;;;;;0.82;0.65;;;12.10;99.90;;;;;;10067319;28;20171;-63
2022/09/28 04:06:53;;;;;;;1.60;0.50;;;12.20;99.90;;;;;;10069745;28;20060;-61
2022/09/28 04:11:45;;;;;;;3.08;0.57;;;12.20;99.90;;;;;;10071011;28;20025;-64
2022/09/28 04:16:36;;;;;;;2.22;0.47;;;12.20;99.90;;;;;;10076600;28;20355;-64
2022/09/28 04:21:26;;;;;;;1.40;0.52;;;12.20;99.90;;;;;;10075068;28;20083;-63
2022/09/28 04:26:20;;;;;;;1.05;0.57;;;12.20;99.90;;;;;;10069008;28;20387;-63
2022/09/28 04:31:13;;;;;;;2.60;0.70;;;12.20;99.90;;;;;;10058442;28;20029;-62
2022/09/28 04:36:04;;;;;;;1.42;0.95;;;12.20;99.90;;;;;;10071894;28;20037;-62
2022/09/28 04:40:55;;;;;;;2.30;0.70;;;12.20;99.90;;;;;;10063567;28;20136;-62
2022/09/28 04:45:46;;;;;;;1.13;0.80;;;12.20;99.90;;;;;;10069303;28;20124;-62
2022/09/28 04:50:36;;;;;;;1.52;0.75;;;12.20;99.90;;;;;;10076405;28;20403;-62
2022/09/28 04:55:31;;;;;;;2.10;0.57;;;12.10;99.90;;;;;;10090988;28;20318;-61
2022/09/28 05:00:21;;;;;;;2.25;0.70;;;12.10;99.90;;;;;;10076811;28;20044;-61
2022/09/28 05:05:12;;;;;;;1.25;0.60;;;12.10;99.90;;;;;;10068565;28;20064;-61
2022/09/28 05:10:04;;;;;;;2.42;0.50;;;12.10;99.90;;;;;;10081812;28;20052;-63
2022/09/28 05:14:55;;;;;;;3.80;0.90;;;12.00;99.90;;;;;;10079572;28;20091;-62
2022/09/28 05:19:46;;;;;;;3.35;0.70;;;11.90;99.90;;;;;;10076642;28;20029;-62
2022/09/28 05:24:36;;;;;;;0.52;0.52;;;12.00;99.90;;;;;;10077850;28;20514;-62
2022/09/28 05:29:27;;;;;;;3.72;0.77;;;11.90;99.90;;;;;;10069531;28;20033;-62
2022/09/28 05:34:18;;;;;;;2.35;0.90;;;12.00;99.90;;;;;;10063290;28;20069;-62
2022/09/28 05:39:08;;;;;;;1.30;0.80;;;12.10;99.90;;;;;;10061126;28;20069;-63
2022/09/28 05:43:59;;;;;;;1.88;0.80;;;12.10;99.90;;;;;;10074139;28;20105;-62
2022/09/28 05:48:51;;;;;;;2.63;0.88;;;12.20;99.90;;;;;;10080774;28;20220;-62
2022/09/28 05:53:42;;;;;;;1.67;1.20;;;12.20;99.90;;;;;;10086607;28;20556;-62
2022/09/28 05:58:32;;;;;;;3.65;1.30;;;12.20;99.90;;;;;;10083132;28;20124;-63
2022/09/28 06:03:23;;;;;;;5.18;2.28;;;12.30;99.90;;;;;;10067700;28;20026;-62
2022/09/28 06:08:14;;;;;;;2.03;1.23;;;12.40;99.90;;;;;;10084553;28;20535;-62
2022/09/28 06:13:05;;;;;;;2.70;1.23;;;12.30;99.90;;;;;;10070584;28;20306;-62
2022/09/28 06:18:02;;;;;;;1.35;0.90;;;12.30;99.90;;;;;;10076792;28;20068;-61
2022/09/28 06:22:53;;;;;;;1.38;1.05;;;12.40;99.90;;;;;;10079289;28;20025;-62
2022/09/28 06:28:02;;;;;;;1.50;0.93;;;12.40;99.90;;;;;;10092178;28;20037;-61
2022/09/28 06:32:55;;;;;;;3.83;1.20;;;12.40;99.90;;;;;;10070382;28;20038;-64
2022/09/28 06:37:45;;;;;;;1.95;0.98;;;12.30;99.90;;;;;;10072274;28;20034;-66
2022/09/28 06:42:36;;;;;;;2.33;1.40;;;12.30;99.90;;;;;;10059844;28;20236;-67
2022/09/28 06:47:27;;;;;;;1.90;0.98;;;12.40;99.90;;;;;;10069889;28;20075;-66
2022/09/28 06:52:17;;;;;;;2.10;1.48;;;12.50;99.90;;;;;;10065267;28;20030;-67
2022/09/28 06:57:08;;;;;;;5.53;2.60;;;12.50;99.90;;;;;;10064891;28;20041;-64
2022/09/28 07:01:58;;;;;;;2.65;1.85;;;12.50;99.90;;;;;;10065061;28;20029;-68
2022/09/28 07:06:49;;;;;;;7.38;1.63;;;12.60;99.90;;;;;;10085507;28;20052;-66
2022/09/28 07:11:40;;;;;;;1.58;1.05;;;12.70;99.90;;;;;;10067682;28;20570;-66
2022/09/28 07:16:30;;;;;;;4.45;1.50;;;12.90;99.90;;;;;;10058436;28;20044;-62
2022/09/28 07:21:21;;;;;;;2.17;1.13;;;13.00;99.90;;;;;;10057654;28;20060;-63
2022/09/28 07:26:11;;;;;;;2.38;1.20;;;13.10;99.90;;;;;;10067943;28;20021;-64
2022/09/28 07:31:02;;;;;;;4.32;1.40;;;13.00;99.90;;;;;;10079147;28;20041;-65
2022/09/28 07:35:54;;;;;;;2.70;1.77;;;13.00;99.90;;;;;;10065702;28;20049;-63
2022/09/28 07:45:55;;;;;;;4.90;1.63;;;13.00;99.90;;;;;;10062893;28;20075;-63
2022/09/28 07:50:54;;;;;;;1.95;1.13;;;13.00;99.90;;;;;;10064038;28;20068;-63
2022/09/28 07:55:55;;;;;;;3.53;1.10;;;13.00;99.90;;;;;;10065265;28;20398;-64
2022/09/28 08:00:47;;;;;;;4.30;1.17;;;13.00;99.90;;;;;;10063863;28;20027;-63
2022/09/28 08:05:39;;;;;;;5.95;1.50;;;13.20;99.90;;;;;;10066187;28;20124;-65
2022/09/28 08:10:30;;;;;;;4.30;1.60;;;13.30;99.90;;;;;;10074005;28;20078;-65
2022/09/28 08:15:21;;;;;;;3.55;1.45;;;13.40;99.90;;;;;;10070055;28;20040;-66
2022/09/28 08:25:21;;;;;;;2.60;1.58;;;13.30;99.90;;;;;;10052484;28;20041;-65
2022/09/28 08:30:11;;;;;;;2.92;0.98;;;13.30;99.90;;;;;;10072942;28;20028;-66
2022/09/28 08:35:02;;;;;;;7.25;1.60;;;13.30;99.90;;;;;;10069538;28;20036;-65
2022/09/28 08:39:53;;;;;;;4.30;1.30;;;13.30;99.90;;;;;;10069745;28;20104;-65
2022/09/28 08:44:56;;;;;;;1.83;1.00;;;13.30;99.90;;;;;;10072158;28;20025;-65
2022/09/28 08:49:49;;;;;;;2.40;1.17;;;13.40;99.90;;;;;;10044174;22;20069;-62
2022/09/28 08:55:18;;;;;;;4.45;1.30;;;13.50;99.90;;;;;;10002812;28;20025;-63
2022/09/28 09:00:18;;;;;;;3.30;1.27;;;13.50;99.90;;;;;;10004777;28;20033;-63
2022/09/28 09:05:13;;;;;;;2.15;1.42;;;13.70;99.90;;;;;;10018710;28;20022;-62
2022/09/28 09:10:27;;;;;;;2.50;1.48;;;13.80;99.90;;;;;;10007893;28;20023;-63
2022/09/28 09:15:37;;;;;;;2.72;1.58;;;13.80;99.90;;;;;;9988684;28;20034;-66
2022/09/28 09:20:52;;;;;;;2.55;1.23;;;14.00;99.90;;;;;;10000561;28;20439;-66
2022/09/28 09:25:53;;;;;;;2.10;1.40;;;13.90;99.90;;;;;;10016550;28;20117;-66
2022/09/28 09:30:49;;;;;;;5.18;1.75;;;14.00;99.90;;;;;;10018329;28;20076;-63
2022/09/28 09:35:48;;;;;;;5.38;1.65;;;14.10;99.90;;;;;;10018771;28;20030;-64
2022/09/28 09:41:03;;;;;;;4.00;1.50;;;14.10;99.90;;;;;;10009255;28;20102;-66
2022/09/28 09:46:17;;;;;;;6.83;3.10;;;14.20;99.90;;;;;;9998293;28;20030;-60
2022/09/28 09:51:23;;;;;;;2.28;0.80;;;14.30;99.90;;;;;;10001423;28;20085;-60
2022/09/28 09:56:17;;;;;;;3.65;1.20;;;14.30;99.90;;;;;;9997707;28;20031;-60
2022/09/28 10:01:13;;;;;;;5.20;2.03;;;14.30;99.90;;;;;;9994079;28;20018;-61
2022/09/28 10:06:19;;;;;;;3.72;1.52;;;14.40;99.90;;;;;;10014538;28;20029;-60
2022/09/28 10:11:16;;;;;;;3.78;1.52;;;14.40;99.90;;;;;;10002428;28;20492;-64
2022/09/28 10:16:06;;;;;;;6.65;1.35;;;14.60;99.90;;;;;;10016905;28;20356;-62
2022/09/28 10:20:57;;;;;;;4.22;1.50;;;14.70;99.90;;;;;;10016082;28;20120;-61
2022/09/28 10:25:51;;;;;;;7.25;1.85;;;14.80;99.90;;;;;;10019048;28;20100;-63
2022/09/28 10:30:43;;;;;;;2.55;1.02;;;14.70;99.90;;;;;;10010321;28;20515;-62
2022/09/28 10:35:42;;;;;;;3.45;1.45;;;14.70;99.90;;;;;;10005498;28;20038;-61
2022/09/28 10:40:32;;;;;;;8.35;4.32;;;14.90;99.90;;;;;;10014129;28;20385;-63
2022/09/28 10:45:23;;;;;;;4.57;1.63;;;14.90;99.90;;;;;;10015773;28;20018;-64
2022/09/28 10:50:21;;;;;;;4.82;1.95;;;15.00;99.90;;;;;;10016603;28;20396;-62
2022/09/28 10:55:31;;;;;;;4.20;2.20;;;15.10;99.90;;;;;;10016555;28;20026;-62
2022/09/28 11:00:40;;;;;;;3.63;1.52;;;15.00;99.90;;;;;;10001292;28;20042;-60
2022/09/28 11:05:31;;;;;;;1.95;1.52;;;14.90;99.90;;;;;;10005302;28;20499;-61
2022/09/28 11:10:27;;;;;;;3.72;1.30;;;14.90;99.90;;;;;;10016861;28;20033;-69
2022/09/28 11:15:30;;;;;;;1.77;0.98;;;15.00;99.90;;;;;;10016079;28;20034;-68
2022/09/28 11:20:23;;;;;;;4.32;1.65;;;14.90;99.90;;;;;;10016138;28;20531;-70
2022/09/28 11:25:17;;;;;;;6.57;1.70;;;14.90;99.90;;;;;;10013269;28;20595;-69
2022/09/28 11:30:48;;;;;;;3.95;1.58;;;15.10;99.90;;;;;;10015254;28;20022;-60
2022/09/28 11:36:13;;;;;;;3.10;0.88;;;15.20;99.90;;;;;;10014696;28;20496;-63
2022/09/28 11:41:13;;;;;;;3.80;1.08;;;15.00;99.90;;;;;;10012934;28;20484;-61
2022/09/28 11:46:35;;;;;;;1.83;1.38;;;15.10;99.90;;;;;;10013301;28;20900;-60
2022/09/28 11:51:30;;;;;;;7.38;2.47;;;15.30;99.90;;;;;;10004067;28;20038;-63
2022/09/28 11:56:32;;;;;;;4.88;1.83;;;15.40;99.90;;;;;;10005665;28;20053;-63
2022/09/28 12:01:34;;;;;;;6.47;1.52;;;15.40;99.90;;;;;;10008799;28;20026;-62
2022/09/28 12:06:35;;;;;;;1.80;1.10;;;15.60;99.90;;;;;;9981382;28;20030;-61
2022/09/28 12:11:34;;;;;;;4.13;1.08;;;15.70;99.90;;;;;;9984102;28;20034;-61
2022/09/28 12:16:45;;;;;;;2.50;0.80;;;15.60;99.90;;;;;;9995457;28;20030;-62
2022/09/28 12:21:43;;;;;;;3.05;0.80;;;15.70;99.90;;;;;;9996217;28;20029;-64
2022/09/28 12:26:44;;;;;;;4.13;1.13;;;15.70;99.90;;;;;;9999963;28;20508;-60
2022/09/28 12:31:52;;;;;;;2.88;1.42;;;15.80;99.90;;;;;;10005527;28;20037;-60
2022/09/28 12:36:48;;;;;;;4.88;1.50;;;16.10;99.90;;;;;;10012165;28;20128;-62
2022/09/28 12:42:13;;;;;;;3.47;1.23;;;16.70;99.90;;;;;;9985563;28;20121;-60
2022/09/28 12:47:18;;;;;;;3.80;1.38;;;16.80;99.50;;;;;;9992626;28;20165;-63
2022/09/28 12:52:47;;;;;;;2.92;1.40;;;16.80;99.60;;;;;;9983829;28;20035;-63
2022/09/28 12:57:47;;;;;;;5.70;1.48;;;16.60;99.30;;;;;;9982314;28;20062;-62
2022/09/28 13:02:56;;;;;;;5.40;1.30;;;16.70;99.50;;;;;;10012452;28;20022;-64
2022/09/28 13:08:02;;;;;;;3.78;1.55;;;16.90;99.10;;;;;;10012065;28;20026;-62
2022/09/28 13:13:36;;;;;;;2.55;1.40;;;17.00;99.20;;;;;;10012139;28;20030;-65
2022/09/28 13:18:39;;;;;;;1.88;1.17;;;16.50;98.80;;;;;;10017474;28;20144;-61
2022/09/28 13:23:38;;;;;;;2.85;1.35;;;16.40;99.00;;;;;;10012854;28;20030;-62
2022/09/28 13:28:31;;;;;;;3.83;1.92;;;16.50;98.60;;;;;;9984730;28;20468;-61
2022/09/28 13:33:35;;;;;;;3.33;1.42;;;16.50;98.50;;;;;;9987029;28;20025;-59
2022/09/28 13:38:26;;;;;;;7.20;2.63;;;16.50;98.40;;;;;;9993411;28;20053;-63
2022/09/28 13:43:30;;;;;;;3.38;1.33;;;16.20;98.20;;;;;;9995533;28;20040;-60
2022/09/28 13:48:55;;;;;;;2.13;1.13;;;16.20;97.80;;;;;;9998570;28;20508;-59
2022/09/28 13:54:05;;;;;;;3.60;1.58;;;16.70;97.40;;;;;;9994965;28;20030;-61
2022/09/28 13:59:19;;;;;;;3.72;1.30;;;17.50;97.20;;;;;;9988810;28;20043;-61
2022/09/28 14:04:17;;;;;;;3.22;1.50;;;17.20;97.00;;;;;;9995729;28;20032;-61
2022/09/28 14:09:44;;;;;;;1.50;1.00;;;16.60;97.30;;;;;;9981921;28;20026;-61
2022/09/28 14:14:48;;;;;;;3.35;1.52;;;16.40;96.90;;;;;;10003075;28;20029;-65
2022/09/28 14:19:41;;;;;;;3.55;1.50;;;16.70;96.80;;;;;;10016980;28;20030;-61
2022/09/28 14:24:49;;;;;;;2.15;1.30;;;16.70;96.70;;;;;;10017315;28;20022;-62
2022/09/28 14:29:41;;;;;;;2.03;0.98;;;16.40;96.60;;;;;;10009804;28;20687;-60
2022/09/28 14:34:46;;;;;;;5.07;1.42;;;16.50;96.50;;;;;;10015062;28;20568;-62
2022/09/28 14:45:02;;;;;;;2.72;1.10;;;16.30;96.20;;;;;;10013269;28;19964;-64
2022/09/28 14:50:01;;;;;;;4.60;1.25;;;16.50;96.10;;;;;;10015787;28;20571;-61
2022/09/28 14:54:54;;;;;;;1.30;0.93;;;16.80;96.10;;;;;;10016233;28;20045;-61
2022/09/28 14:59:45;;;;;;;4.60;1.20;;;16.60;96.00;;;;;;10016072;28;20027;-62
2022/09/28 15:04:44;;;;;;;3.85;1.02;;;17.30;95.70;;;;;;10013716;28;20026;-61
2022/09/28 15:09:37;;;;;;;2.65;1.00;;;18.10;95.20;;;;;;10016184;28;20010;-64
2022/09/28 15:14:30;;;;;;;1.73;1.55;;;18.30;95.30;;;;;;10015436;28;20588;-64
2022/09/28 15:19:50;;;;;;;1.35;1.05;;;18.70;94.90;;;;;;10014865;28;20052;-63
2022/09/28 15:24:45;;;;;;;0.93;0.85;;;19.50;94.80;;;;;;10014619;28;20029;-62
2022/09/28 15:29:35;;;;;;;;;;;19.50;95.20;;;;;;10002950;28;20057;-64
2022/09/28 15:39:40;;;;;;;1.45;0.80;;;19.20;95.60;;;;;;9988266;28;20429;-64
2022/09/28 15:44:34;;;;;;;2.38;0.98;;;18.60;96.20;;;;;;10001013;28;20041;-64
2022/09/28 15:49:49;;;;;;;2.30;1.00;;;19.50;95.70;;;;;;9984236;28;20056;-63
2022/09/28 15:54:43;;;;;;;1.48;0.98;;;20.20;95.20;;;;;;9978789;28;20404;-63
2022/09/28 15:59:38;;;;;;;3.65;1.10;;;21.10;94.70;;;;;;9980224;28;20034;-63
2022/09/28 16:04:54;;;;;;;1.85;1.00;;;21.30;94.40;;;;;;9989271;28;20022;-63
2022/09/28 16:09:59;;;;;;;2.08;0.80;;;21.00;94.60;;;;;;9981049;28;20080;-63
2022/09/28 16:14:52;;;;;;;2.45;1.17;;;19.50;95.40;;;;;;9992762;28;20022;-59
2022/09/28 16:19:43;;;;;;;2.80;1.73;;;17.80;97.00;;;;;;9996840;28;20057;-62
2022/09/28 16:24:36;;;;;;;2.92;1.00;;;16.90;97.70;;;;;;10012351;28;20033;-60
2022/09/28 16:29:38;;;;;;;2.67;1.23;;;16.30;98.10;;;;;;10012067;28;20381;-62
2022/09/28 16:34:29;;;;;;;3.75;1.77;;;15.90;98.60;;;;;;10012929;28;20026;-62
2022/09/28 16:39:20;;;;;;;1.98;1.20;;;15.60;98.80;;;;;;10011401;28;20051;-61
2022/09/28 16:44:26;;;;;;;1.38;0.70;;;15.40;99.00;;;;;;10003607;28;20038;-65
2022/09/28 16:49:19;;;;;;;3.08;1.38;;;15.20;99.30;;;;;;9968378;28;1265737;-61
2022/09/28 16:59:28;;;;;;;1.30;1.10;;;14.90;99.70;;;;;;10018565;28;20072;-62
2022/09/28 17:04:18;;;;;;;1.77;1.67;;;14.70;99.90;;;;;;10020335;28;20018;-61
2022/09/28 17:09:11;;;;;;;3.22;1.38;;;14.40;99.90;;;;;;10006654;28;20026;-61
2022/09/28 17:14:04;;;;;;;7.40;1.73;;;14.20;99.90;;;;;;10019364;28;20030;-65
2022/09/28 17:18:55;;;;;;;3.42;1.52;;;14.10;99.90;;;;;;10019399;28;20042;-61
2022/09/28 17:23:48;;;;;;;2.35;0.95;;;14.00;99.90;;;;;;10020018;28;20026;-64
2022/09/28 17:28:39;;;;;;;2.22;1.25;;;14.00;99.90;;;;;;10018983;28;20057;-61
2022/09/28 17:33:29;;;;;;;2.78;1.15;;;13.90;99.90;;;;;;10018770;28;20018;-62
2022/09/28 17:38:20;;;;;;;4.18;1.70;;;13.70;99.90;;;;;;10013364;28;20038;-59
2022/09/28 17:43:11;;;;;;;1.75;1.00;;;13.60;99.90;;;;;;10003934;28;20805;-63
2022/09/28 17:48:02;;;;;;;1.83;1.30;;;13.50;99.90;;;;;;10017672;28;20127;-62
2022/09/28 17:52:53;;;;;;;3.28;0.95;;;13.50;99.90;;;;;;10018996;28;20037;-63
2022/09/28 17:57:44;;;;;;;2.05;1.00;;;13.40;99.90;;;;;;10018361;28;20125;-61
2022/09/28 18:02:34;;;;;;;2.28;1.10;;;13.40;99.90;;;;;;10020248;28;20479;-61
2022/09/28 18:07:27;;;;;;;2.78;0.93;;;13.30;99.90;;;;;;10018994;28;20036;-62
2022/09/28 18:12:18;;;;;;;3.08;1.50;;;13.30;99.90;;;;;;10019118;28;20036;-62
2022/09/28 18:17:09;;;;;;;3.78;1.95;;;13.30;99.90;;;;;;10018965;28;20040;-62
2022/09/28 18:22:00;;;;;;;3.25;1.42;;;13.20;99.90;;;;;;10004553;28;20542;-61
2022/09/28 18:26:50;;;;;;;2.97;1.70;;;13.20;99.90;;;;;;10007242;28;20022;-63
2022/09/28 18:31:41;;;;;;;3.70;1.20;;;13.10;99.90;;;;;;10018825;28;20060;-64
2022/09/28 18:36:35;;;;;;;3.67;2.47;;;13.10;99.90;;;;;;10012339;28;20079;-61
2022/09/28 18:41:28;;;;;;;3.55;1.05;;;13.00;99.90;;;;;;10018374;28;20040;-62
2022/09/28 18:46:18;;;;;;;3.53;1.40;;;12.90;99.90;;;;;;10017270;28;20424;-61
2022/09/28 18:51:10;;;;;;;1.58;1.30;;;12.90;99.90;;;;;;10016182;28;20038;-62
2022/09/28 18:56:09;;;;;;;1.95;1.55;;;12.70;99.90;;;;;;10016727;28;20631;-60
2022/09/28 19:01:08;;;;;;;2.20;1.60;;;12.70;99.90;;;;;;10015998;28;20060;-61
2022/09/28 19:05:59;;;;;;;2.55;1.73;;;12.70;99.90;;;;;;10009767;28;20038;-64
2022/09/28 19:10:49;;;;;;;2.72;1.33;;;12.60;99.90;;;;;;9995267;28;20026;-62
2022/09/28 19:15:40;;;;;;;2.47;1.40;;;12.60;99.90;;;;;;10001215;28;20041;-59
2022/09/28 19:20:32;;;;;;;5.22;2.00;;;12.60;99.90;;;;;;10004947;28;20042;-60
2022/09/28 19:25:22;;;;;;;1.75;1.23;;;12.60;99.90;;;;;;10014259;28;20774;-63
2022/09/28 19:30:13;;;;;;;3.38;1.83;;;12.50;99.90;;;;;;10014083;28;20125;-61
2022/09/28 19:35:04;;;;;;;2.15;1.30;;;12.50;99.90;;;;;;10014328;28;20032;-63
2022/09/28 19:39:55;;;;;;;5.70;2.10;;;12.40;99.90;;;;;;10014222;28;20036;-63
2022/09/28 19:44:46;;;;;;;6.20;2.38;;;12.40;99.90;;;;;;10028958;28;20030;-64
2022/09/28 19:49:39;;;;;;;4.32;3.08;;;12.40;99.90;;;;;;10013059;28;20133;-66
2022/09/28 19:54:31;;;;;;;3.00;1.58;;;12.30;99.90;;;;;;10013413;28;20033;-66
2022/09/28 19:59:21;;;;;;;2.35;1.45;;;12.20;99.90;;;;;;10013022;28;20042;-62
2022/09/28 20:04:13;;;;;;;3.58;1.60;;;12.20;99.90;;;;;;10013970;28;20250;-62
2022/09/28 20:09:06;;;;;;;2.15;1.35;;;12.20;99.90;;;;;;10011983;28;20030;-63
2022/09/28 20:13:59;;;;;;;2.97;1.73;;;12.20;99.90;;;;;;10013864;28;20026;-62
2022/09/28 20:18:54;;;;;;;4.72;2.55;;;12.30;99.90;;;;;;10012765;28;20483;-61
2022/09/28 20:23:46;;;;;;;2.60;1.15;;;12.30;99.90;;;;;;10011396;28;20440;-61
2022/09/28 20:28:37;;;;;;;1.75;1.52;;;12.20;99.90;;;;;;10008627;28;20066;-62
2022/09/28 20:33:29;;;;;;;2.95;1.60;;;12.20;99.90;;;;;;10008478;28;20105;-63
2022/09/28 20:38:22;;;;;;;2.47;1.90;;;12.20;99.90;;;;;;9981086;28;20038;-63
2022/09/28 20:43:15;;;;;;;3.30;1.90;;;12.20;99.90;;;;;;10010664;28;20030;-63
2022/09/28 20:48:06;;;;;;;2.88;1.98;;;12.20;99.90;;;;;;10011743;28;20144;-67
2022/09/28 20:52:56;;;;;;;2.67;1.73;;;12.20;99.90;;;;;;10012192;28;20517;-65
2022/09/28 20:57:47;;;;;;;3.53;2.17;;;12.10;99.90;;;;;;10011832;28;20036;-67
2022/09/28 21:02:38;;;;;;;4.53;2.10;;;12.10;99.90;;;;;;10012440;28;20105;-63
2022/09/28 21:07:28;;;;;;;4.03;1.80;;;12.20;99.90;;;;;;10027034;28;20036;-64
2022/09/28 21:12:19;;;;;;;2.78;1.75;;;12.20;99.90;;;;;;10012219;28;20104;-61
2022/09/28 21:17:10;;;;;;;4.65;1.98;;;12.30;99.90;;;;;;10012166;28;20547;-63
2022/09/28 21:22:05;;;;;;;4.65;1.77;;;12.30;99.90;;;;;;10009306;28;20030;-65
2022/09/28 21:26:57;;;;;;;4.65;2.40;;;12.30;99.90;;;;;;10001490;28;20026;-61
2022/09/28 21:31:47;;;;;;;6.00;2.25;;;12.30;99.90;;;;;;10006378;28;20027;-62
2022/09/28 21:36:39;;;;;;;3.13;2.03;;;12.30;99.90;;;;;;10013795;28;20113;-60
2022/09/28 21:41:30;;;;;;;5.50;2.53;;;12.30;99.90;;;;;;10018649;28;20369;-61
2022/09/28 21:46:20;;;;;;;3.40;2.35;;;12.40;99.90;;;;;;10017771;28;20033;-63
2022/09/28 21:51:14;;;;;;;4.72;1.95;;;12.40;99.90;;;;;;10019280;28;20058;-61
2022/09/28 21:56:08;;;;;;;3.30;2.25;;;12.40;99.90;;;;;;10018788;28;20065;-63
2022/09/28 22:01:06;;;;;;;3.47;1.67;;;12.40;99.90;;;;;;10006943;28;20558;-64
2022/09/28 22:05:57;;;;;;;2.58;1.83;;;12.30;99.90;;;;;;10018592;28;20069;-62
2022/09/28 22:10:59;;;;;;;2.65;1.48;;;12.20;99.90;;;;;;10017574;28;20049;-60
2022/09/28 22:15:54;;;;;;;2.28;1.60;;;12.10;99.90;;;;;;10017642;28;20030;-65
2022/09/28 22:20:45;;;;;;;2.30;1.63;;;12.10;99.90;;;;;;10013135;28;20030;-65
2022/09/28 22:25:35;;;;;;;2.80;1.63;;;12.20;99.90;;;;;;10016688;28;20026;-61
2022/09/28 22:30:26;;;;;;;4.35;1.70;;;12.10;99.90;;;;;;10009499;28;20069;-62
2022/09/28 22:35:17;;;;;;;4.65;2.33;;;12.10;99.90;;;;;;10016733;28;20044;-63
2022/09/28 22:40:10;;;;;;;4.28;2.38;;;12.00;99.90;;;;;;10016301;28;20034;-63
2022/09/28 22:45:00;;;;;;;5.13;1.42;;;12.00;99.90;;;;;;10013620;28;20029;-62
2022/09/28 22:49:51;;;;;;;2.70;1.80;;;12.00;99.90;;;;;;10014922;28;20062;-63
2022/09/28 22:54:42;;;;;;;2.22;1.70;;;12.00;99.90;;;;;;10016728;28;20330;-61
2022/09/28 22:59:32;;;;;;;3.72;2.08;;;11.90;99.90;;;;;;10015581;28;20034;-62
2022/09/28 23:04:23;;;;;;;3.58;2.05;;;12.00;99.90;;;;;;10031002;28;20029;-62
2022/09/28 23:09:14;;;;;;;5.22;2.28;;;12.00;99.90;;;;;;10014853;28;20045;-63
2022/09/28 23:14:05;;;;;;;4.85;2.03;;;12.00;99.90;;;;;;10014919;28;20488;-63
2022/09/28 23:18:56;;;;;;;4.15;1.70;;;11.90;99.90;;;;;;10014599;28;20041;-63
2022/09/28 23:23:52;;;;;;;5.65;2.00;;;11.90;99.90;;;;;;10014206;28;20029;-63
2022/09/28 23:28:44;;;;;;;2.80;1.67;;;11.90;99.90;;;;;;10014529;28;20026;-63
2022/09/28 23:33:34;;;;;;;4.13;2.30;;;11.80;99.90;;;;;;10014421;28;20045;-64
2022/09/28 23:38:25;;;;;;;2.28;1.70;;;11.90;99.90;;;;;;10014323;28;20034;-63
2022/09/28 23:43:15;;;;;;;2.95;2.15;;;11.90;99.90;;;;;;10014537;28;20026;-66
2022/09/28 23:48:06;;;;;;;3.53;2.15;;;11.90;99.90;;;;;;10013676;28;20116;-65
2022/09/28 23:52:57;;;;;;;5.40;3.53;;;11.90;99.90;;;;;;10013926;28;20164;-63
2022/09/28 23:57:47;;;;;;;3.78;2.00;;;11.90;99.90;;;;;;10013323;28;20037;-63
